Time;durP1;ratioP1;P1;durP2;ratioP2;P2;SDS_P1;SDS_P2;PMS_P1;PMS_P2;Temp;Humidity;BMP_temperature;BMP_pressure;BME280_temperature;BME280_humidity;BME280_pressure;Samples;Min_cycle;Max_cycle;Signal;HPM_P1;HPM_P2
2023/08/21 00:01:56;;;;;;;;;;;22.10;93.00;;;;;;5028892;28;19956;-71
2023/08/21 00:04:22;;;;;;;;;;;22.10;93.10;;;;;;5030163;28;19949;-71
2023/08/21 00:06:47;;;;;;;;;;;22.00;93.10;;;;;;5030203;28;20361;-71
2023/08/21 00:09:13;;;;;;;;;;;22.00;93.10;;;;;;5030448;28;20440;-71
2023/08/21 00:11:38;;;;;;;;;;;22.00;93.10;;;;;;5030410;28;19963;-71
2023/08/21 00:14:04;;;;;;;;;;;22.00;93.20;;;;;;5030498;28;19944;-71
2023/08/21 00:16:29;;;;;;;;;;;21.90;93.20;;;;;;5030030;28;19917;-71
2023/08/21 00:18:55;;;;;;;;;;;21.90;93.30;;;;;;5030626;28;19931;-71
2023/08/21 00:21:21;;;;;;;;;;;21.90;93.40;;;;;;5030409;28;19910;-71
2023/08/21 00:23:46;;;;;;;;;;;21.80;93.40;;;;;;5030698;28;20514;-71
2023/08/21 00:26:12;;;;;;;;;;;21.80;93.30;;;;;;5030021;28;19913;-71
2023/08/21 00:28:38;;;;;;;;;;;21.80;93.40;;;;;;5030125;28;19913;-71
2023/08/21 00:31:04;;;;;;;;;;;21.80;93.30;;;;;;5029972;28;20007;-71
2023/08/21 00:33:33;;;;;;;;;;;21.80;93.40;;;;;;5029949;28;19924;-71
2023/08/21 00:35:58;;;;;;;;;;;21.70;93.40;;;;;;5029218;28;19991;-71
2023/08/21 00:38:24;;;;;;;;;;;21.70;93.40;;;;;;5029747;28;20019;-71
2023/08/21 00:40:50;;;;;;;;;;;21.70;93.50;;;;;;5028945;28;20000;-71
2023/08/21 00:43:15;;;;;;;;;;;21.70;93.40;;;;;;5029818;28;20372;-71
2023/08/21 00:45:42;;;;;;;;;;;21.60;93.80;;;;;;5029229;28;20008;-71
2023/08/21 00:48:08;;;;;;;;;;;21.60;93.70;;;;;;5029982;28;20497;-71
2023/08/21 00:50:34;;;;;;;;;;;21.60;93.50;;;;;;5045069;28;19940;-71
2023/08/21 00:53:00;;;;;;;;;;;21.60;93.60;;;;;;5029707;28;19919;-71
2023/08/21 00:55:25;;;;;;;;;;;21.60;93.60;;;;;;5029399;28;19921;-71
2023/08/21 00:57:51;;;;;;;;;;;21.50;93.70;;;;;;5028279;28;20014;-71
2023/08/21 01:00:17;;;;;;;;;;;21.50;93.60;;;;;;5028688;28;19936;-71
2023/08/21 01:02:43;;;;;;;;;;;21.50;93.60;;;;;;5029461;28;20612;-71
2023/08/21 01:05:08;;;;;;;;;;;21.50;93.60;;;;;;5029566;28;19913;-71
2023/08/21 01:07:45;;;;;;;;;;;21.40;93.80;;;;;;5029027;28;20442;-71
2023/08/21 01:10:23;;;;;;;;;;;21.40;93.90;;;;;;5029470;28;20304;-71
2023/08/21 01:13:03;;;;;;;;;;;21.40;94.00;;;;;;5029046;28;20369;-71
2023/08/21 01:15:29;;;;;;;;;;;21.40;94.00;;;;;;5028730;28;19930;-71
2023/08/21 01:17:55;;;;;;;;;;;21.30;93.80;;;;;;5044430;28;19917;-71
2023/08/21 01:20:21;;;;;;;;;;;21.30;93.80;;;;;;5029113;28;19909;-71
2023/08/21 01:22:46;;;;;;;;;;;21.30;93.80;;;;;;5044127;28;20289;-71
2023/08/21 01:25:12;;;;;;;;;;;21.30;93.80;;;;;;5028813;28;19915;-71
2023/08/21 01:27:43;;;;;;;;;;;21.30;93.80;;;;;;5028165;28;19913;-71
2023/08/21 01:30:09;;;;;;;;;;;21.30;94.10;;;;;;5028761;28;19921;-71
2023/08/21 01:32:39;;;;;;;;;;;21.20;94.20;;;;;;5028606;28;20356;-71
2023/08/21 01:35:06;;;;;;;;;;;21.20;93.90;;;;;;5026371;28;19920;-71
2023/08/21 01:37:32;;;;;;;;;;;21.20;94.10;;;;;;5008593;28;19909;-71
2023/08/21 01:39:57;;;;;;;;;;;21.20;94.20;;;;;;5010945;28;19917;-71
2023/08/21 01:42:23;;;;;;;;;;;21.10;94.00;;;;;;5020905;28;19944;-71
2023/08/21 01:44:48;;;;;;;;;;;21.10;93.90;;;;;;5008874;28;19917;-71
2023/08/21 01:47:14;;;;;;;;;;;21.10;94.20;;;;;;5009016;28;19983;-71
2023/08/21 01:49:40;;;;;;;;;;;21.10;94.10;;;;;;5007624;28;19921;-71
2023/08/21 01:52:05;;;;;;;;;;;21.10;94.00;;;;;;5008952;28;19918;-71
2023/08/21 01:54:31;;;;;;;;;;;21.10;94.00;;;;;;5021829;28;19988;-71
2023/08/21 01:56:57;;;;;;;;;;;21.00;94.10;;;;;;5028186;28;19913;-71
2023/08/21 01:59:23;;;;;;;;;;;21.00;94.20;;;;;;5028845;28;19980;-71
2023/08/21 02:01:48;;;;;;;;;;;21.00;94.20;;;;;;5028162;28;19944;-71
2023/08/21 02:04:14;;;;;;;;;;;21.00;94.20;;;;;;5028512;28;20468;-71
2023/08/21 02:06:39;;;;;;;;;;;20.90;94.30;;;;;;5027712;28;19913;-71
2023/08/21 02:09:05;;;;;;;;;;;20.90;94.00;;;;;;5028471;28;19921;-71
2023/08/21 02:11:30;;;;;;;;;;;20.90;93.90;;;;;;5028255;28;19914;-71
2023/08/21 02:13:55;;;;;;;;;;;20.90;94.10;;;;;;5028645;28;19945;-71
2023/08/21 02:16:21;;;;;;;;;;;20.90;94.10;;;;;;5027910;28;20268;-71
2023/08/21 02:18:47;;;;;;;;;;;20.80;94.00;;;;;;5028375;28;19920;-70
2023/08/21 02:21:13;;;;;;;;;;;20.90;94.20;;;;;;5028557;28;19924;-71
2023/08/21 02:23:38;;;;;;;;;;;20.80;94.20;;;;;;5028346;28;19917;-71
2023/08/21 02:26:04;;;;;;;;;;;20.80;94.00;;;;;;5027994;28;19920;-71
2023/08/21 02:28:29;;;;;;;;;;;20.80;94.10;;;;;;5043603;28;19950;-71
2023/08/21 02:30:54;;;;;;;;;;;20.80;94.10;;;;;;5028248;28;19973;-71
2023/08/21 02:33:20;;;;;;;;;;;20.80;94.30;;;;;;5043236;28;19913;-71
2023/08/21 02:35:45;;;;;;;;;;;20.80;94.20;;;;;;5020047;28;19917;-71
2023/08/21 02:38:11;;;;;;;;;;;20.70;94.30;;;;;;5020630;28;20469;-71
2023/08/21 02:40:36;;;;;;;;;;;20.70;94.50;;;;;;5028138;28;20290;-71
2023/08/21 02:43:02;;;;;;;;;;;20.70;94.20;;;;;;5027615;28;19996;-71
2023/08/21 02:45:28;;;;;;;;;;;20.70;94.20;;;;;;5027843;28;19940;-71
2023/08/21 02:47:53;;;;;;;;;;;20.70;94.20;;;;;;5027921;28;19924;-71
2023/08/21 02:50:19;;;;;;;;;;;20.70;94.40;;;;;;5016504;28;19933;-71
2023/08/21 02:52:44;;;;;;;;;;;20.60;94.40;;;;;;5008362;28;19914;-71
2023/08/21 02:55:09;;;;;;;;;;;20.60;94.70;;;;;;5007962;28;19976;-71
2023/08/21 02:57:35;;;;;;;;;;;20.60;94.70;;;;;;5022965;28;19913;-71
2023/08/21 03:00:01;;;;;;;;;;;20.60;94.80;;;;;;5027900;28;19912;-71
2023/08/21 03:02:27;;;;;;;;;;;20.60;94.40;;;;;;5028082;28;20361;-71
2023/08/21 03:04:52;;;;;;;;;;;20.60;94.30;;;;;;5030633;28;20314;-71
2023/08/21 03:07:18;;;;;;;;;;;20.60;94.30;;;;;;5031459;28;19939;-71
2023/08/21 03:09:45;;;;;;;;;;;20.60;94.50;;;;;;5031880;28;20391;-71
2023/08/21 03:12:10;;;;;;;;;;;20.50;94.50;;;;;;5031512;28;19971;-71
2023/08/21 03:14:36;;;;;;;;;;;20.50;94.60;;;;;;5046870;28;19914;-71
2023/08/21 03:17:01;;;;;;;;;;;20.50;94.90;;;;;;5031435;28;19916;-71
2023/08/21 03:19:27;;;;;;;;;;;20.50;94.90;;;;;;5031568;28;19909;-71
2023/08/21 03:21:52;;;;;;;;;;;20.50;94.60;;;;;;5031710;28;19920;-71
2023/08/21 03:24:18;;;;;;;;;;;20.40;94.50;;;;;;5031463;28;19945;-71
2023/08/21 03:26:43;;;;;;;;;;;20.40;94.40;;;;;;5030822;28;19917;-71
2023/08/21 03:29:09;;;;;;;;;;;20.40;94.60;;;;;;5031411;28;19913;-71
2023/08/21 03:31:34;;;;;;;;;;;20.40;94.40;;;;;;5031008;28;19972;-71
2023/08/21 03:34:00;;;;;;;;;;;20.40;94.50;;;;;;5031291;28;19963;-71
2023/08/21 03:36:31;;;;;;;;;;;20.40;94.50;;;;;;5045327;28;20328;-71
2023/08/21 03:39:00;;;;;;;;;;;20.30;94.50;;;;;;5030963;28;19955;-70
2023/08/21 03:41:26;;;;;;;;;;;20.40;94.60;;;;;;5030409;28;19913;-71
2023/08/21 03:43:51;;;;;;;;;;;20.30;94.50;;;;;;5031497;28;19917;-71
2023/08/21 03:46:17;;;;;;;;;;;20.30;94.50;;;;;;5031187;28;19955;-71
2023/08/21 03:48:42;;;;;;;;;;;20.30;94.70;;;;;;5027856;28;19917;-71
2023/08/21 03:51:08;;;;;;;;;;;20.30;94.70;;;;;;5031053;28;20258;-71
2023/08/21 03:53:33;;;;;;;;;;;20.20;94.60;;;;;;5030583;28;19916;-71
2023/08/21 03:55:59;;;;;;;;;;;20.20;94.70;;;;;;5045819;28;19917;-71
2023/08/21 03:58:27;;;;;;;;;;;20.20;94.60;;;;;;5046049;28;19922;-71
2023/08/21 04:00:53;;;;;;;;;;;20.20;94.70;;;;;;5045536;28;19909;-71
2023/08/21 04:03:19;;;;;;;;;;;20.20;94.80;;;;;;5030821;28;19917;-71
2023/08/21 04:05:45;;;;;;;;;;;20.10;95.00;;;;;;5028827;28;19913;-71
2023/08/21 04:08:10;;;;;;;;;;;20.10;95.00;;;;;;5030627;28;20719;-71
2023/08/21 04:10:36;;;;;;;;;;;20.10;95.10;;;;;;5030623;28;19913;-71
2023/08/21 04:13:01;;;;;;;;;;;20.10;95.20;;;;;;5030549;28;20286;-71
2023/08/21 04:15:27;;;;;;;;;;;20.10;95.10;;;;;;5030239;28;20323;-71
2023/08/21 04:17:52;;;;;;;;;;;20.10;94.90;;;;;;5030533;28;19922;-71
2023/08/21 04:20:20;;;;;;;;;;;20.10;94.90;;;;;;5045752;28;19962;-71
2023/08/21 04:22:46;;;;;;;;;;;20.00;94.90;;;;;;5033700;28;19917;-76
2023/08/21 04:25:11;;;;;;;;;;;20.00;95.00;;;;;;5030495;28;19913;-76
2023/08/21 04:27:37;;;;;;;;;;;20.00;94.90;;;;;;5030052;28;19913;-76
2023/08/21 04:30:02;;;;;;;;;;;20.00;94.90;;;;;;5030381;28;19913;-76
2023/08/21 04:32:28;;;;;;;;;;;20.00;95.00;;;;;;5030210;28;19920;-76
2023/08/21 04:34:53;;;;;;;;;;;20.00;95.00;;;;;;5028949;28;19909;-76
2023/08/21 04:37:19;;;;;;;;;;;20.00;95.00;;;;;;5008983;28;20294;-76
2023/08/21 04:39:45;;;;;;;;;;;20.00;95.00;;;;;;5009366;28;19916;-76
2023/08/21 04:42:11;;;;;;;;;;;20.00;94.90;;;;;;5009200;28;19919;-76
2023/08/21 04:44:36;;;;;;;;;;;19.90;95.00;;;;;;5019107;28;19913;-76
2023/08/21 04:47:18;;;;;;;;;;;19.90;94.90;;;;;;5044588;28;19913;-76
2023/08/21 04:49:44;;;;;;;;;;;20.00;94.90;;;;;;5029455;28;19920;-76
2023/08/21 04:52:09;;;;;;;;;;;20.00;95.00;;;;;;5030179;28;19917;-76
2023/08/21 04:54:35;;;;;;;;;;;20.00;95.00;;;;;;5029774;28;20353;-76
2023/08/21 04:57:00;;;;;;;;;;;19.90;95.10;;;;;;5029363;28;19909;-76
2023/08/21 04:59:26;;;;;;;;;;;19.90;94.90;;;;;;5029924;28;19909;-76
2023/08/21 05:01:52;;;;;;;;;;;19.90;95.00;;;;;;5029776;28;20484;-76
2023/08/21 05:04:17;;;;;;;;;;;19.90;95.00;;;;;;5029723;28;20007;-76
2023/08/21 05:06:43;;;;;;;;;;;19.90;95.10;;;;;;5029175;28;19917;-76
2023/08/21 05:09:08;;;;;;;;;;;19.90;95.00;;;;;;5029093;28;19920;-76
2023/08/21 05:11:34;;;;;;;;;;;19.90;95.00;;;;;;5029431;28;19913;-76
2023/08/21 05:13:59;;;;;;;;;;;19.90;95.00;;;;;;5029702;28;19913;-76
2023/08/21 05:16:25;;;;;;;;;;;19.90;95.10;;;;;;5029402;28;20063;-76
2023/08/21 05:18:50;;;;;;;;;;;19.90;95.10;;;;;;5029686;28;19909;-76
2023/08/21 05:21:16;;;;;;;;;;;19.90;95.20;;;;;;5029553;28;19920;-76
2023/08/21 05:23:41;;;;;;;;;;;19.90;95.20;;;;;;5029360;28;20680;-76
2023/08/21 05:26:07;;;;;;;;;;;19.90;95.20;;;;;;5043492;28;19913;-76
2023/08/21 05:28:32;;;;;;;;;;;19.90;95.30;;;;;;5020385;28;20028;-76
2023/08/21 05:30:58;;;;;;;;;;;19.90;95.20;;;;;;5023977;28;20289;-76
2023/08/21 05:33:23;;;;;;;;;;;19.90;95.20;;;;;;5044333;28;20289;-76
2023/08/21 05:35:49;;;;;;;;;;;19.90;95.40;;;;;;5020240;28;19917;-76
2023/08/21 05:38:14;;;;;;;;;;;19.90;95.10;;;;;;5014451;28;19913;-76
2023/08/21 05:40:41;;;;;;;;;;;19.90;95.10;;;;;;5017314;28;19924;-76
2023/08/21 05:43:07;;;;;;;;;;;19.90;95.10;;;;;;5016079;28;19916;-76
2023/08/21 05:45:32;;;;;;;;;;;19.90;95.20;;;;;;5018860;28;19999;-76
2023/08/21 05:47:58;;;;;;;;;;;19.80;95.10;;;;;;5041130;28;19913;-76
2023/08/21 05:50:23;;;;;;;;;;;19.80;95.20;;;;;;5017464;28;19956;-76
2023/08/21 05:52:49;;;;;;;;;;;19.80;95.20;;;;;;5021218;28;19929;-76
2023/08/21 05:55:14;;;;;;;;;;;19.90;95.20;;;;;;5019955;28;19944;-76
2023/08/21 05:57:40;;;;;;;;;;;19.90;95.20;;;;;;5017734;28;19952;-76
2023/08/21 06:00:08;;;;;;;;;;;19.80;95.10;;;;;;5019513;28;19968;-76
2023/08/21 06:02:34;;;;;;;;;;;19.90;95.10;;;;;;5014436;28;19917;-76
2023/08/21 06:04:59;;;;;;;;;;;19.80;95.10;;;;;;5018884;28;19967;-71
2023/08/21 06:07:25;;;;;;;;;;;19.90;95.20;;;;;;5014753;28;19956;-71
2023/08/21 06:09:50;;;;;;;;;;;19.90;95.20;;;;;;5024176;28;19921;-71
2023/08/21 06:12:16;;;;;;;;;;;19.90;95.20;;;;;;5018687;28;19971;-71
2023/08/21 06:14:41;;;;;;;;;;;19.90;95.20;;;;;;5027264;28;19913;-76
2023/08/21 06:17:08;;;;;;;;;;;19.80;95.20;;;;;;5028250;28;19967;-71
2023/08/21 06:19:34;;;;;;;;;;;19.90;95.10;;;;;;5009581;28;20281;-71
2023/08/21 06:21:59;;;;;;;;;;;19.90;95.20;;;;;;5023166;28;19917;-71
2023/08/21 06:24:25;;;;;;;;;;;19.90;95.00;;;;;;5027938;28;19913;-71
2023/08/21 06:26:51;;;;;;;;;;;20.00;95.10;;;;;;5027782;28;19917;-71
2023/08/21 06:29:16;;;;;;;;;;;20.00;95.10;;;;;;5040512;28;20561;-71
2023/08/21 06:31:42;;;;;;;;;;;19.90;95.00;;;;;;5012337;28;19917;-71
2023/08/21 06:34:08;;;;;;;;;;;20.00;95.00;;;;;;5027435;28;19913;-71
2023/08/21 06:36:33;;;;;;;;;;;20.00;95.00;;;;;;5026278;28;20764;-71
2023/08/21 06:38:59;;;;;;;;;;;20.00;95.00;;;;;;5029974;28;19917;-71
2023/08/21 06:41:25;;;;;;;;;;;20.10;95.00;;;;;;5047428;28;19913;-70
2023/08/21 06:43:50;;;;;;;;;;;20.10;95.00;;;;;;5047617;28;19913;-70
2023/08/21 06:46:16;;;;;;;;;;;20.10;95.00;;;;;;5032012;28;20020;-71
2023/08/21 06:48:41;;;;;;;;;;;20.10;95.00;;;;;;5032465;28;19913;-71
2023/08/21 06:51:07;;;;;;;;;;;20.10;95.00;;;;;;5032186;28;19920;-71
2023/08/21 06:53:32;;;;;;;;;;;20.10;95.00;;;;;;5032068;28;19921;-71
2023/08/21 06:55:58;;;;;;;;;;;20.10;94.90;;;;;;5031855;28;19921;-70
2023/08/21 06:58:24;;;;;;;;;;;20.20;94.90;;;;;;5032090;28;19909;-71
2023/08/21 07:00:49;;;;;;;;;;;20.20;95.00;;;;;;5032218;28;20326;-71
2023/08/21 07:03:15;;;;;;;;;;;20.20;94.90;;;;;;5047190;28;19960;-71
2023/08/21 07:05:40;;;;;;;;;;;20.20;94.90;;;;;;5031457;28;19913;-71
2023/08/21 07:08:06;;;;;;;;;;;20.30;94.90;;;;;;5031906;28;19921;-71
2023/08/21 07:10:37;;;;;;;;;;;20.30;94.80;;;;;;5031395;28;19921;-71
2023/08/21 07:13:03;;;;;;;;;;;20.40;94.80;;;;;;5031811;28;20346;-71
2023/08/21 07:15:29;;;;;;;;;;;20.40;94.80;;;;;;5031538;28;19913;-71
2023/08/21 07:17:55;;;;;;;;;;;20.40;94.80;;;;;;5031772;28;20020;-71
2023/08/21 07:20:21;;;;;;;;;;;20.50;94.80;;;;;;5031737;28;19917;-71
2023/08/21 07:22:47;;;;;;;;;;;20.50;94.80;;;;;;5031835;28;20494;-71
2023/08/21 07:25:12;;;;;;;;;;;20.50;94.80;;;;;;5031289;28;19920;-71
2023/08/21 07:27:38;;;;;;;;;;;20.60;94.70;;;;;;5031099;28;19981;-71
2023/08/21 07:30:05;;;;;;;;;;;20.60;94.70;;;;;;5020891;28;19917;-71
2023/08/21 07:32:30;;;;;;;;;;;20.60;94.60;;;;;;5011413;28;19917;-71
2023/08/21 07:34:56;;;;;;;;;;;20.70;94.70;;;;;;5019911;28;19963;-71
2023/08/21 07:37:21;;;;;;;;;;;20.70;94.70;;;;;;5031326;28;19920;-71
2023/08/21 07:39:47;;;;;;;;;;;20.70;94.70;;;;;;5031531;28;19920;-71
2023/08/21 07:42:12;;;;;;;;;;;20.80;94.90;;;;;;5046194;28;20377;-71
2023/08/21 07:44:38;;;;;;;;;;;20.80;94.80;;;;;;5031066;28;19993;-71
2023/08/21 07:47:04;;;;;;;;;;;20.80;94.80;;;;;;5030948;28;19936;-71
2023/08/21 07:49:30;;;;;;;;;;;20.90;94.80;;;;;;5045845;28;19913;-71
2023/08/21 07:51:56;;;;;;;;;;;20.90;94.70;;;;;;5024385;28;19983;-71
2023/08/21 07:54:21;;;;;;;;;;;21.00;94.80;;;;;;5011349;28;20359;-71
2023/08/21 07:56:47;;;;;;;;;;;21.00;94.80;;;;;;5019182;28;19909;-71
2023/08/21 07:59:12;;;;;;;;;;;21.00;94.70;;;;;;5028789;28;19921;-71
2023/08/21 08:01:38;;;;;;;;;;;21.00;94.70;;;;;;5029688;28;20396;-71
2023/08/21 08:04:04;;;;;;;;;;;21.10;94.80;;;;;;5030054;28;19940;-71
2023/08/21 08:06:31;;;;;;;;;;;21.10;94.70;;;;;;5044585;28;19975;-71
2023/08/21 08:08:57;;;;;;;;;;;21.20;94.70;;;;;;5045902;28;20492;-71
2023/08/21 08:11:22;;;;;;;;;;;21.20;94.70;;;;;;5030784;28;19924;-71
2023/08/21 08:13:48;;;;;;;;;;;21.20;94.70;;;;;;5030921;28;20641;-71
2023/08/21 08:16:13;;;;;;;;;;;21.30;94.60;;;;;;5030105;28;19917;-71
2023/08/21 08:18:39;;;;;;;;;;;21.30;94.50;;;;;;5030738;28;19920;-71
2023/08/21 08:21:04;;;;;;;;;;;21.30;94.40;;;;;;5030699;28;19913;-71
2023/08/21 08:23:30;;;;;;;;;;;21.30;94.40;;;;;;5030838;28;20357;-71
2023/08/21 08:25:56;;;;;;;;;;;21.30;94.30;;;;;;5030192;28;19984;-71
2023/08/21 08:28:21;;;;;;;;;;;21.40;94.30;;;;;;5028963;28;19933;-71
2023/08/21 08:30:47;;;;;;;;;;;21.40;94.30;;;;;;5012339;28;19920;-71
2023/08/21 08:33:12;;;;;;;;;;;21.40;94.30;;;;;;5028013;28;19921;-71
2023/08/21 08:35:37;;;;;;;;;;;21.50;94.20;;;;;;5029849;28;19913;-71
2023/08/21 08:38:03;;;;;;;;;;;21.50;94.20;;;;;;5030243;28;19917;-71
2023/08/21 08:40:29;;;;;;;;;;;21.50;94.10;;;;;;5030318;28;19951;-71
2023/08/21 08:42:54;;;;;;;;;;;21.50;94.10;;;;;;5030239;28;20270;-71
2023/08/21 08:45:27;;;;;;;;;;;21.50;94.10;;;;;;5045355;28;20243;-71
2023/08/21 08:47:53;;;;;;;;;;;21.60;94.00;;;;;;5030013;28;20581;-71
2023/08/21 08:50:19;;;;;;;;;;;21.60;93.90;;;;;;5030165;28;19982;-71
2023/08/21 08:52:45;;;;;;;;;;;21.70;93.90;;;;;;5029879;28;20008;-71
2023/08/21 08:55:11;;;;;;;;;;;21.70;93.80;;;;;;5029556;28;20008;-71
2023/08/21 08:57:36;;;;;;;;;;;21.80;93.80;;;;;;5029813;28;19952;-71
2023/08/21 09:00:03;;;;;;;;;;;21.80;93.80;;;;;;5029982;28;19913;-71
2023/08/21 09:02:29;;;;;;;;;;;21.80;93.80;;;;;;5028878;28;20059;-71
2023/08/21 09:04:54;;;;;;;;;;;21.80;93.70;;;;;;5029536;28;20015;-71
2023/08/21 09:07:20;;;;;;;;;;;21.80;93.70;;;;;;5016577;28;19921;-71
2023/08/21 09:09:46;;;;;;;;;;;21.80;93.70;;;;;;5009974;28;19959;-71
2023/08/21 09:12:13;;;;;;;;;;;21.90;93.70;;;;;;5009817;28;19913;-71
2023/08/21 09:14:39;;;;;;;;;;;21.90;93.60;;;;;;5010047;28;19925;-71
2023/08/21 09:17:04;;;;;;;;;;;21.90;93.60;;;;;;5009479;28;20314;-71
2023/08/21 09:19:30;;;;;;;;;;;21.90;93.50;;;;;;5009996;28;19920;-71
2023/08/21 09:21:55;;;;;;;;;;;21.90;93.50;;;;;;5039291;28;19954;-71
2023/08/21 09:24:21;;;;;;;;;;;22.00;93.50;;;;;;5029437;28;19951;-71
2023/08/21 09:26:47;;;;;;;;;;;22.00;93.50;;;;;;5028891;28;20043;-71
2023/08/21 09:29:12;;;;;;;;;;;22.00;93.40;;;;;;5024267;28;20413;-71
2023/08/21 09:31:38;;;;;;;;;;;22.00;93.40;;;;;;5022295;28;20036;-71
2023/08/21 09:34:06;;;;;;;;;;;22.10;93.40;;;;;;5029260;28;19917;-71
2023/08/21 09:36:33;;;;;;;;;;;22.00;93.30;;;;;;5029108;28;19947;-70
2023/08/21 09:38:58;;;;;;;;;;;22.10;93.30;;;;;;5029123;28;19920;-71
2023/08/21 09:41:25;;;;;;;;;;;22.20;93.30;;;;;;5043625;28;19913;-71
2023/08/21 09:43:50;;;;;;;;;;;22.20;93.20;;;;;;5012946;28;19996;-71
2023/08/21 09:46:16;;;;;;;;;;;22.20;93.20;;;;;;5009032;28;19992;-71
2023/08/21 09:48:43;;;;;;;;;;;22.20;93.10;;;;;;5007893;28;19910;-70
2023/08/21 09:51:09;;;;;;;;;;;22.30;93.10;;;;;;5009281;28;19920;-71
2023/08/21 09:53:35;;;;;;;;;;;22.30;93.10;;;;;;5009336;28;19921;-71
2023/08/21 09:56:03;;;;;;;;;;;22.30;93.30;;;;;;5016715;28;19921;-70
2023/08/21 09:58:29;;;;;;;;;;;22.40;93.00;;;;;;5027883;28;19924;-71
2023/08/21 10:00:58;;;;;;;;;;;22.40;93.00;;;;;;5025764;28;20387;-71
2023/08/21 10:03:24;;;;;;;;;;;22.40;92.90;;;;;;5028654;28;19958;-71
2023/08/21 10:05:49;;;;;;;;;;;22.50;92.90;;;;;;5027887;28;19917;-71
2023/08/21 10:08:19;;;;;;;;;;;22.50;92.80;;;;;;5028645;28;20636;-71
2023/08/21 10:10:44;;;;;;;;;;;22.60;92.80;;;;;;5028634;28;20384;-71
2023/08/21 10:13:11;;;;;;;;;;;22.70;92.70;;;;;;5027835;28;19921;-71
2023/08/21 10:15:37;;;;;;;;;;;22.70;92.60;;;;;;5028274;28;19909;-71
2023/08/21 10:18:23;;;;;;;;;;;22.70;92.70;;;;;;5028492;28;20641;-71
2023/08/21 10:20:49;;;;;;;;;;;22.70;92.70;;;;;;5028511;28;20004;-71
2023/08/21 10:23:30;;;;;;;;;;;22.70;92.70;;;;;;5027146;28;20000;-71
2023/08/21 10:25:57;;;;;;;;;;;22.80;92.60;;;;;;5028198;28;20012;-71
2023/08/21 10:28:23;;;;;;;;;;;22.80;92.50;;;;;;5027991;28;19952;-71
2023/08/21 10:30:49;;;;;;;;;;;22.90;92.50;;;;;;5042789;28;19918;-71
2023/08/21 10:33:14;;;;;;;;;;;22.90;92.50;;;;;;5043203;28;19924;-71
2023/08/21 10:35:40;;;;;;;;;;;23.00;92.60;;;;;;5040909;28;19913;-71
2023/08/21 10:38:13;;;;;;;;;;;22.90;92.50;;;;;;5008459;28;19913;-71
2023/08/21 10:40:39;;;;;;;;;;;23.00;92.50;;;;;;5008725;28;19914;-71
2023/08/21 10:43:05;;;;;;;;;;;23.10;92.60;;;;;;5008413;28;19983;-71
2023/08/21 10:45:30;;;;;;;;;;;23.10;92.60;;;;;;5025687;28;19917;-71
2023/08/21 10:47:59;;;;;;;;;;;23.20;92.50;;;;;;5028348;28;19963;-71
2023/08/21 10:50:25;;;;;;;;;;;23.20;92.50;;;;;;5028021;28;20468;-71
2023/08/21 10:52:51;;;;;;;;;;;23.30;92.40;;;;;;5043058;28;19924;-71
2023/08/21 10:55:18;;;;;;;;;;;23.40;92.40;;;;;;5018689;28;19921;-71
2023/08/21 10:57:46;;;;;;;;;;;23.40;92.40;;;;;;5014202;28;19921;-71
2023/08/21 11:00:12;;;;;;;;;;;23.40;92.30;;;;;;5026412;28;19914;-71
2023/08/21 11:02:39;;;;;;;;;;;23.50;92.40;;;;;;5026170;28;19909;-71
2023/08/21 11:05:06;;;;;;;;;;;23.60;92.20;;;;;;5043145;28;19917;-71
2023/08/21 11:07:43;;;;;;;;;;;23.60;92.20;;;;;;5042092;28;19916;-71
2023/08/21 11:10:13;;;;;;;;;;;23.70;92.10;;;;;;5025771;28;19939;-71
2023/08/21 11:12:47;;;;;;;;;;;23.80;92.10;;;;;;5027278;28;20266;-71
2023/08/21 11:15:12;;;;;;;;;;;23.90;91.90;;;;;;5027822;28;19944;-73
2023/08/21 11:17:38;;;;;;;;;;;23.90;92.00;;;;;;5028392;28;19959;-73
2023/08/21 11:20:04;;;;;;;;;;;24.00;92.00;;;;;;5029513;28;20273;-73
2023/08/21 11:22:32;;;;;;;;;;;24.10;91.90;;;;;;5029214;28;20035;-73
2023/08/21 11:24:57;;;;;;;;;;;24.10;91.90;;;;;;5030464;28;19909;-73
2023/08/21 11:27:23;;;;;;;;;;;24.20;91.80;;;;;;5032296;28;20247;-73
2023/08/21 11:29:50;;;;;;;;;;;24.30;91.90;;;;;;5032425;28;19917;-73
2023/08/21 11:32:22;;;;;;;;;;;24.40;91.80;;;;;;5020840;28;19914;-73
2023/08/21 11:34:49;;;;;;;;;;;24.50;91.60;;;;;;5031086;28;19921;-73
2023/08/21 11:37:16;;;;;;;;;;;24.60;91.60;;;;;;5031011;28;20044;-73
2023/08/21 11:39:46;;;;;;;;;;;24.70;91.60;;;;;;5032625;28;19913;-73
2023/08/21 11:42:12;;;;;;;;;;;24.70;91.50;;;;;;5032551;28;19909;-73
2023/08/21 11:44:45;;;;;;;;;;;24.80;91.50;;;;;;5031565;28;19913;-73
2023/08/21 11:47:11;;;;;;;;;;;24.90;91.40;;;;;;5017888;28;19925;-73
2023/08/21 11:49:38;;;;;;;;;;;24.90;91.40;;;;;;5018162;28;20330;-73
2023/08/21 11:52:04;;;;;;;;;;;25.00;91.50;;;;;;5031650;28;19921;-73
2023/08/21 11:54:36;;;;;;;;;;;25.00;91.40;;;;;;5032011;28;20285;-73
2023/08/21 11:57:05;;;;;;;;;;;25.00;91.50;;;;;;5031852;28;19936;-73
2023/08/21 11:59:31;;;;;;;;;;;25.10;91.50;;;;;;5032443;28;19949;-73
2023/08/21 12:01:56;;;;;;;;;;;25.10;91.40;;;;;;5028798;28;20322;-73
2023/08/21 12:04:22;;;;;;;;;;;25.20;91.40;;;;;;5047052;28;19916;-73
2023/08/21 12:06:48;;;;;;;;;;;25.30;91.40;;;;;;5040409;28;19913;-73
2023/08/21 12:09:13;;;;;;;;;;;25.30;91.40;;;;;;5012056;28;20382;-73
2023/08/21 12:11:39;;;;;;;;;;;25.50;91.20;;;;;;5012175;28;19917;-73
2023/08/21 12:14:05;;;;;;;;;;;25.60;91.10;;;;;;5034450;28;20295;-73
2023/08/21 12:16:30;;;;;;;;;;;25.70;90.70;;;;;;5011408;28;20017;-72
2023/08/21 12:18:58;;;;;;;;;;;25.80;90.60;;;;;;5010486;28;19913;-72
2023/08/21 12:21:25;;;;;;;;;;;25.90;90.70;;;;;;5010497;28;19952;-72
2023/08/21 12:23:50;;;;;;;;;;;26.00;90.60;;;;;;5020070;28;20441;-72
2023/08/21 12:26:21;;;;;;;;;;;26.00;90.70;;;;;;5030675;28;19999;-72
2023/08/21 12:28:47;;;;;;;;;;;26.10;90.60;;;;;;5030060;28;19909;-72
2023/08/21 12:31:13;;;;;;;;;;;26.10;90.60;;;;;;5026289;28;19910;-72
2023/08/21 12:33:38;;;;;;;;;;;26.10;90.90;;;;;;5010028;28;19976;-72
2023/08/21 12:36:04;;;;;;;;;;;26.00;90.90;;;;;;5028244;28;19913;-73
2023/08/21 12:38:29;;;;;;;;;;;26.10;90.80;;;;;;5019512;28;20032;-72
2023/08/21 12:40:54;;;;;;;;;;;26.20;91.00;;;;;;5020218;28;19913;-72
2023/08/21 12:43:20;;;;;;;;;;;26.30;91.10;;;;;;5029957;28;19917;-72
2023/08/21 12:45:47;;;;;;;;;;;26.30;91.10;;;;;;5028603;28;19909;-72
2023/08/21 12:48:13;;;;;;;;;;;26.40;91.10;;;;;;5030376;28;19909;-72
2023/08/21 12:50:38;;;;;;;;;;;26.30;91.00;;;;;;5030568;28;19919;-72
2023/08/21 12:53:04;;;;;;;;;;;26.40;91.00;;;;;;5030405;28;19920;-72
2023/08/21 12:55:30;;;;;;;;;;;26.40;91.10;;;;;;5030144;28;19921;-72
2023/08/21 12:57:56;;;;;;;;;;;26.50;91.10;;;;;;5029497;28;20623;-72
2023/08/21 13:00:21;;;;;;;;;;;26.50;91.20;;;;;;5030177;28;20003;-72
2023/08/21 13:02:47;;;;;;;;;;;26.60;91.10;;;;;;5029513;28;19964;-72
2023/08/21 13:05:12;;;;;;;;;;;26.60;91.00;;;;;;5029360;28;20416;-72
2023/08/21 13:07:38;;;;;;;;;;;26.70;91.10;;;;;;5044578;28;19964;-72
2023/08/21 13:10:03;;;;;;;;;;;26.70;91.00;;;;;;5029563;28;20557;-73
2023/08/21 13:12:29;;;;;;;;;;;26.80;90.90;;;;;;5029170;28;19928;-73
2023/08/21 13:14:54;;;;;;;;;;;26.90;90.90;;;;;;5029963;28;20444;-73
2023/08/21 13:17:20;;;;;;;;;;;26.80;91.20;;;;;;5030110;28;19913;-72
2023/08/21 13:19:45;;;;;;;;;;;26.70;90.90;;;;;;5045313;28;19913;-72
2023/08/21 13:22:11;;;;;;;;;;;26.70;91.00;;;;;;5030578;28;19914;-73
2023/08/21 13:24:36;;;;;;;;;;;26.70;91.00;;;;;;5030277;28;19913;-73
2023/08/21 13:27:02;;;;;;;;;;;26.70;91.20;;;;;;5030210;28;19913;-73
2023/08/21 13:29:28;;;;;;;;;;;26.70;91.30;;;;;;5028704;28;19917;-73
2023/08/21 13:31:53;;;;;;;;;;;26.70;91.30;;;;;;5029944;28;19928;-73
2023/08/21 13:34:19;;;;;;;;;;;26.80;91.40;;;;;;5030274;28;20358;-73
2023/08/21 13:36:46;;;;;;;;;;;26.80;91.40;;;;;;5028954;28;20143;-73
2023/08/21 13:39:15;;;;;;;;;;;26.90;91.30;;;;;;5030070;28;20580;-73
2023/08/21 13:41:40;;;;;;;;;;;26.90;91.20;;;;;;5030139;28;19916;-72
2023/08/21 13:44:07;;;;;;;;;;;27.00;91.20;;;;;;5030297;28;19909;-73
2023/08/21 13:46:33;;;;;;;;;;;27.10;90.90;;;;;;5030278;28;20306;-72
2023/08/21 13:48:58;;;;;;;;;;;27.10;90.60;;;;;;5029906;28;19913;-73
2023/08/21 13:51:24;;;;;;;;;;;27.20;90.50;;;;;;5030004;28;20682;-73
2023/08/21 13:53:49;;;;;;;;;;;27.30;90.40;;;;;;5030128;28;19917;-72
2023/08/21 13:56:15;;;;;;;;;;;27.40;90.10;;;;;;5029758;28;19995;-73
2023/08/21 13:58:40;;;;;;;;;;;27.50;90.00;;;;;;5027187;28;19952;-72
2023/08/21 14:01:07;;;;;;;;;;;27.60;89.80;;;;;;5030218;28;20012;-73
2023/08/21 14:03:33;;;;;;;;;;;27.70;89.50;;;;;;5028731;28;19913;-73
2023/08/21 14:05:59;;;;;;;;;;;27.70;88.90;;;;;;5029340;28;19955;-72
2023/08/21 14:08:25;;;;;;;;;;;27.60;89.20;;;;;;5029950;28;19949;-73
2023/08/21 14:10:50;;;;;;;;;;;27.60;89.00;;;;;;5029888;28;20294;-73